Relevés horaires Beauvechain (Belgique)


Relevés horaires à Beauvechain - Jeudi 18 Avr. 2019
Heure UTC1 Température [°C] Vent [km/h] Hum. [%] Pres.4 [hPa] Visi. [Km] Nébu. [octa] Préc.5 [mm] Cond.
2m. Res. Ros. Dir.2 Vit. Moy. Raf.3
23:00 12.2 12.2 3.3 NE 3.7 -- 5.6 54 1025.2(1.0/3h) 20 -- -- --
22:00 13.8 13.8 3.3 NNO 1.9 -- 3.7 49 1024.7(1.0/3h) 20 -- -- --
21:00 15.7 15.7 3.0 NNO 1.9 -- 9.3 42 1024.4(1.3/3h) 20 -- -- --
20:00 16.3 16.3 3.0 E 3.7 -- 5.6 41 1023.8(1.2/3h) 20 -- -- --
19:00 16.2 16.2 3.9 NE 3.7 -- 9.3 44 1023.6(1.0/3h) 20 -- -- --
18:00 18.1 18.1 4.4 ENE 5.6 -- 18.5 40 1022.8(0.3/3h) 20 -- -- --
17:00 19.7 19.7 4.3 ENE 9.3 -- 14.8 36 1022.3(0.1/3h) 20 -- -- --
16:00 20.1 20.1 4.5 E 9.3 -- 14.8 36 1022.3(-0.2/3h) 20 1/8 -- --
15:00 20.3 20.3 3.9 ENE 11.1 -- 18.5 34 1022.3(-0.4/3h) 20 1/8 -- --
14:00 20.6 20.6 5.7 ENE 9.3 -- 14.8 38 1022.5(-0.7/3h) 20 1/8 -- --
13:00 20.4 20.4 5.6 ENE 11.1 -- 18.5 38 1022.6(-1.0/3h) 20 1/8 -- --
12:00 19.5 19.5 3.9 ENE 9.3 -- 14.8 36 1022.8(-0.8/3h) 20 1/8 -- --
12:00 19.5 19.5 3.9 ENE 9.3 -- 14.8 36 1022.8(-0.8/3h) 20 1/8 -- --
11:00 18.7 18.7 4.6 ENE 9.3 -- 13.0 39 1023.2(-0.2/3h) 20 1/8 -- --
11:00 18.7 18.7 4.6 ENE 9.3 -- 13.0 39 1023.2(-0.2/3h) 20 1/8 -- --
10:00 18.1 18.1 5.7 ENE 7.4 -- 11.1 44 1023.8(0.1/3h) 20 1/8 -- --
10:00 18.1 18.1 5.7 ENE 7.4 7.4 11.1 44 1023.8(0.1/3h) 20 1/8 -- --
09:00 15.2 15.2 5.6 E 5.6 -- 11.1 53 1024(0.8/3h) 20 1/8 -- --
09:00 15.2 15.2 5.6 E 5.6 -- 11.1 53 1024(0.8/3h) 20 1/8 -- --
08:00 13.0 13 5.9 E 5.6 -- 9.3 62 1023.8(1.1/3h) 12 1/8 -- --
08:00 13.0 13 5.9 E 5.6 -- 9.3 62 1023.8(1.1/3h) 12 1/8 -- --
07:00 11.1 10.4 5.8 E 7.4 -- 9.3 70 1023.6(1.2/3h) 11 1/8 -- --
06:00 9.6 9.6 6.3 E 3.7 -- 7.4 80 1023.3(0.5/3h) 9 1/8 -- --
06:00 9.6 9.6 6.3 E 3.7 -- 7.4 80 1023.3(0.5/3h) 9 1/8 -- --

1 Coordinated Universal Time. Actuellement il est 09:00 locale et 08:00 UTC.

2 Le vent souffle depuis la direction indiquée vers la direction oposée.

3 Les rafales max. sont disponible 40 min après l'heure du relevé.

4 Pour les stations d'altitude (plus de 600m) le géopotentiel du niveau le plus proche de la pression obligatoire est indiqué.

5 Les stations disposant d'un diffuseur peuvent indiquer "trace". Cela signifie que des précipitations ont touchés le sol mais que la quantité est inférieure à 0.1 mm.

Récapitulatif de la journée
Température [°C] Vent [km/h] Ensoleillement4 [h] Precipitations totale5 [mm] Pression [Hpa]
Min1 Max.2 Moy.3 Max. Min Max.
7.8 20.9 7.4 18.5 0 h 0 min 0 1022.3 1025.2

1 Température minimale relevée entre 18:00 UTC la veille et 18:00 UTC le jour donné.

2 Température maximale relevée entre 06:00 UTC le jour donné et 06:00 UTC le lendemain.

3 Vent moyen de la journée basé sur les relevés horaires.

4 Ensoleillement en heures relevé entre 06:00 UTC la veille et 06:00 UTC le jour donné.

5 Précipitations totales tombées entre 06:00 UTC la jour donné et 06:00 UTC le lendemain.

Graphiques horaires